Main page
METAR-TAF:

METAR-TAF

Airports :

Saurimo Airport

Saurimo, Angola

latitude: 9-41-20S, longitude: 20-25-55E, elevation: 1092 m

Current weather observation

The report was made 3 hours and 42 minutes ago, at 15:00 UTC
Calm wind
Temperature 30°C
Humidity 43%
Pressure 1016 hPa
Visibility 10 km or more
Scattered clouds at a height of 5000 ft

METAR: FNSA 191500Z 00000KT 9999 SCT050 30/16 Q1016

Time: 19:42 (18:42 UTC)

Forecast

The report was made 7 hours and 57 minutes ago, at 10:45 UTC
Forecast valid from 19 at 12 UTC to 19 at 24 UTC
Wind 6 kt from the West/Northwest
Visibility 10 km or more
Broken clouds at a height of 3000 ft
Temporary
from 19 at 14 UTC to 19 at 18 UTC
Wind 3 kt from variable directions
Visibility: 8000 m
Scattered clouds at a height of 1600 ft
Few clouds at a height of 2000 ft, Cumulonimbus.
Broken clouds at a height of 2500 ft
drizzle

TAF: FNSA 191045Z 1912/1924 30006KT 9999 BKN030 TEMPO 1914/1918 VRB03KT 8000 DZ SCT016 FEW020CB BKN025

Weather observations and forecasts of more than 4000 airports (METAR and TAF reports).

The available stations are represented by yellow and red dots on the map.

Hover mouse over dot to see the name of the station.

Then click to see weather observations and forecasts.

To change the map : click on the green buttons with a black cross to zoom in, on the green button with a dash to zoom out, or on the green arrows for adjacent maps.


METAR-TAF: